• Join FlightAware (Why Join?)
  • Login
  • US Flag 
Rudolph Flight #1: Arrived! 
10:45PM EST


 

Airport Tracker/Info


-or-


 

Live Flight TrackerFlight Track Log ✈ DAL1981 ✈ 16-Jun-2013 ✈ KSMF - KMSP

Flight Track Log - Related Links

Times and Time Zones

All times are in EDT time to prevent confusion due to time zone crossing. See the DAL1981 flight status page for this flight to view local times or setup timezone preferences in your user account.

Time Position Orientation Groundspeed Altitude Reporting Facility
EDT Latitude Longitude Course Direction KTS MPH feet Rate Location/Type
03:54PM 38.6622 -121.5742 78° East 188 216 1,400  Level Oakland Center
03:54PM 38.6500 -121.5500 123° Southeast 193 222 1,800 1,560 Climbing Northern Cal TRACON
03:55PM 38.6167 -121.4667 117° Southeast 267 307 3,400 2,220 Climbing Northern Cal TRACON
03:56PM 38.6167 -121.3667 90° East 283 326 6,300 2,640 Climbing Northern Cal TRACON
03:57PM 38.6239 -121.3017 82° East 296 341 8,200 2,280 Climbing Oakland Center
03:58PM 38.5664 -120.9187 78° East  Level FlightAware Approximate
03:58PM 38.6342 -121.1981 83° East 303 349 10,600  Level Oakland Center
03:59PM 38.5939 -120.7534 78° East  Level FlightAware Approximate
03:59PM 38.6467 -121.0497 84° East 358 412 12,100  Level Oakland Center
04:00PM 38.6586 -120.9108 84° East 386 444 14,400 2,640 Climbing Oakland Center
04:01PM 38.6703 -120.7722 84° East 391 450 17,600 2,040 Climbing Oakland Center
04:02PM 38.6822 -120.6356 84° East 386 444 18,700 1,140 Climbing Oakland Center
04:03PM 38.7553 -120.5150 52° Northeast 429 494 20,000 1,440 Climbing Oakland Center
04:04PM 38.8397 -120.3986 47° Northeast 442 509 21,700 1,560 Climbing Oakland Center
04:05PM 38.9244 -120.2811 47° Northeast 446 513 23,200 1,260 Climbing Oakland Center
04:06PM 39.0111 -120.1606 47° Northeast 456 525 24,400 1,200 Climbing Oakland Center
04:07PM 39.1069 -120.0275 47° Northeast 468 539 25,700 1,080 Climbing Oakland Center
04:08PM 39.1992 -119.9000 47° Northeast 480 552 26,700 600 Climbing Oakland Center
04:09PM 39.2933 -119.7689 47° Northeast 495 570 27,000 600 Climbing Oakland Center
04:10PM 39.4075 -119.6119 47° Northeast 497 572 28,000 1,080 Climbing Oakland Center
04:11PM 39.5006 -119.4783 48° Northeast 497 572 29,200 1,080 Climbing Oakland Center
04:12PM 39.5931 -119.3458 48° Northeast 494 568 30,300 1,020 Climbing Oakland Center
04:13PM 39.6867 -119.2128 48° Northeast 494 568 31,300 900 Climbing Oakland Center
04:15PM 39.7806 -119.0772 48° Northeast 499 574 32,200 780 Climbing Oakland Center
04:16PM 39.8756 -118.9411 48° Northeast 503 579 33,000 780 Climbing Oakland Center
04:17PM 39.9694 -118.8056 48° Northeast 501 577 33,800 660 Climbing Oakland Center
04:18PM 40.0631 -118.6667 49° Northeast 505 581 34,400 540 Climbing Oakland Center
04:19PM 40.1394 -118.5125 57° Northeast 503 579 35,000 300 Climbing Oakland Center
04:20PM 40.1867 -118.3583 68° East 501 577 35,000  Level Salt Lake Center
04:21PM 40.2383 -118.1664 71° East 501 577 35,000  Level Salt Lake Center
04:22PM 40.2906 -117.9742 70° East 503 579 35,000  Level Oakland Center
04:23PM 40.3347 -117.8094 71° East 501 577 35,000  Level Oakland Center
04:24PM 40.3783 -117.6453 71° East 498 573 35,000  Level Salt Lake Center
04:25PM 40.4297 -117.4544 70° East 496 571 35,000  Level Salt Lake Center
04:26PM 40.4731 -117.2894 71° East 498 573 35,000  Level Salt Lake Center
04:27PM 40.5175 -117.1244 70° East 496 571 35,000  Level Salt Lake Center
04:28PM 40.5689 -116.9283 71° East 499 574 35,000  Level Salt Lake Center
04:29PM 40.6294 -116.7703 63° Northeast 499 574 35,000  Level Salt Lake Center
04:30PM 40.6903 -116.6133 63° Northeast 499 574 35,000  Level Salt Lake Center
04:31PM 40.7608 -116.4306 63° Northeast 499 574 35,000  Level Salt Lake Center
04:32PM 40.8208 -116.2739 63° Northeast 499 574 35,000  Level Salt Lake Center
04:33PM 40.8933 -116.0894 62° Northeast 504 580 35,000  Level Salt Lake Center
04:34PM 40.9525 -115.9328 63° Northeast 500 575 35,000  Level Salt Lake Center
04:35PM 41.0117 -115.7758 63° Northeast 498 573 35,000  Level Salt Lake Center
04:36PM 41.0811 -115.5928 63° Northeast 497 572 35,000  Level Salt Lake Center
04:37PM 41.1403 -115.4339 64° Northeast 500 575 35,000  Level Salt Lake Center
04:38PM 41.2086 -115.2492 64° Northeast 499 574 35,000  Level Salt Lake Center
04:39PM 41.2669 -115.0919 64° Northeast 497 572 35,000  Level Salt Lake Center
04:40PM 41.3350 -114.9072 64° Northeast 498 573 35,000  Level Salt Lake Center
04:41PM 41.3953 -114.7408 64° Northeast 497 572 35,000  Level Salt Lake Center
04:42PM 41.4558 -114.5764 64° Northeast 496 571 35,000  Level Salt Lake Center
04:43PM 41.5164 -114.4106 64° Northeast 497 572 35,000  Level Salt Lake Center
04:44PM 41.5761 -114.2450 64° Northeast 496 571 35,000  Level Salt Lake Center
04:45PM 41.6347 -114.0781 65° Northeast 496 571 35,000  Level Salt Lake Center
04:46PM 41.6944 -113.9111 64° Northeast 497 572 35,000  Level Salt Lake Center
04:47PM 41.7658 -113.7119 64° Northeast 495 570 35,000  Level Salt Lake Center
04:48PM 41.8242 -113.5442 65° Northeast 496 571 35,000  Level Salt Lake Center
04:49PM 41.8831 -113.3764 65° Northeast 497 572 35,000  Level Salt Lake Center
04:50PM 41.9417 -113.2081 65° Northeast 498 573 35,000  Level Salt Lake Center
04:51PM 41.9994 -113.0403 65° Northeast 495 570 35,000  Level Salt Lake Center
04:52PM 42.0569 -112.8697 66° East 499 574 35,000  Level Salt Lake Center
04:54PM 42.1144 -112.7022 65° Northeast 494 568 35,000  Level Salt Lake Center
04:55PM 42.1719 -112.5322 65° Northeast 497 572 35,000  Level Salt Lake Center
04:56PM 42.2400 -112.3281 66° East 498 573 35,000  Level Salt Lake Center
04:57PM 42.2958 -112.1553 66° East 501 577 35,000  Level Salt Lake Center
04:58PM 42.3517 -111.9847 66° East 498 573 35,000  Level Salt Lake Center
04:59PM 42.4067 -111.8125 67° East 498 573 35,000  Level Salt Lake Center
05:00PM 42.4619 -111.6414 66° East 498 573 35,000  Level Salt Lake Center
05:01PM 42.5169 -111.4692 67° East 498 573 35,000  Level Salt Lake Center
05:02PM 42.5717 -111.2956 67° East 499 574 35,000  Level Salt Lake Center
05:03PM 42.6375 -111.0881 67° East 500 575 35,000  Level Salt Lake Center
05:04PM 42.6861 -110.9292 67° East 499 574 35,000  Level Salt Lake Center
05:05PM 42.7419 -110.7522 67° East 505 581 35,000  Level Salt Lake Center
05:06PM 42.8017 -110.5575 67° East 502 578 35,000  Level Salt Lake Center
05:07PM 42.8531 -110.3894 67° East 502 578 35,000  Level Salt Lake Center
05:08PM 42.9128 -110.1922 67° East 505 581 35,000  Level Salt Lake Center
05:09PM 42.9633 -110.0236 68° East 504 580 35,000  Level Salt Lake Center
05:10PM 43.0189 -109.8389 68° East 503 579 35,000  Level Salt Lake Center
05:11PM 43.0781 -109.6406 68° East 506 582 35,000  Level Salt Lake Center
05:12PM 43.1275 -109.4714 68° East 503 579 35,000  Level Salt Lake Center
05:13PM 43.1850 -109.2747 68° East 500 575 35,000  Level Salt Lake Center
05:14PM 43.2344 -109.1044 68° East 503 579 35,000  Level Salt Lake Center
05:15PM 43.2831 -108.9339 69° East 501 577 35,000  Level Salt Lake Center
05:16PM 43.3403 -108.7358 68° East 501 577 35,000  Level Salt Lake Center
05:17PM 43.3922 -108.5553 68° East 505 581 35,000  Level Salt Lake Center
05:18PM 43.4481 -108.3561 69° East 500 575 35,000  Level Salt Lake Center
05:19PM 43.4939 -108.1953 69° East 502 578 35,000  Level Salt Lake Center
05:20PM 43.5533 -107.9967 68° East 503 579 35,000  Level Salt Lake Center
05:21PM 43.6033 -107.8269 68° East 500 575 35,000  Level Salt Lake Center
05:22PM 43.6614 -107.6269 68° East 503 579 35,000  Level Salt Lake Center
05:23PM 43.7103 -107.4567 68° East 500 575 35,000  Level Salt Lake Center
05:24PM 43.7658 -107.2597 69° East 495 570 35,000  Level Salt Lake Center
05:25PM 43.8142 -107.0878 69° East 500 575 35,000  Level Salt Lake Center
05:27PM 43.8683 -106.8853 70° East 505 581 35,000  Level Salt Lake Center
05:28PM 43.8894 -106.6939 81° East 505 581 35,000  Level Salt Lake Center
05:29PM 43.9164 -106.4464 81° East 499 574 35,000  Level Denver Center
05:30PM 43.9325 -106.2933 82° East 504 580 35,000  Level Salt Lake Center
05:31PM 43.9503 -106.1108 82° East 500 575 35,000  Level Salt Lake Center
05:31PM 43.9561 -106.0503 82° East 498 573 35,000  Level Denver Center
05:32PM 43.9744 -105.8653 82° East 502 578 35,000  Level Denver Center
05:33PM 43.9931 -105.6506 83° East 502 578 35,000  Level Denver Center
05:34PM 44.0103 -105.4642 83° East 505 581 35,000  Level Denver Center
05:35PM 44.0297 -105.2492 83° East 503 579 35,000  Level Denver Center
05:36PM 44.0458 -105.0656 83° East 501 577 35,000  Level Denver Center
05:37PM 44.0611 -104.8811 83° East 500 575 35,000  Level Denver Center
05:38PM 44.0794 -104.6647 83° East 502 578 35,000  Level Denver Center
05:39PM 44.0950 -104.4778 83° East 506 582 35,000  Level Denver Center
05:40PM 44.1117 -104.2594 84° East 507 583 35,000  Level Denver Center
05:41PM 44.1267 -104.0736 84° East 507 583 35,000  Level Denver Center
05:42PM 44.1433 -103.8544 84° East 509 586 35,000  Level Denver Center
05:44PM 44.1575 -103.6694 84° East 503 579 35,000  Level Denver Center
05:45PM 44.1758 -103.4244 84° East 500 575 35,000 -60 Level Denver Center
05:46PM 44.1886 -103.2419 84° East 495 570 34,900  Descending Denver Center
05:47PM 44.2025 -103.0439 84° East 500 575 35,000  Climbing Denver Center
05:48PM 44.2150 -102.8497 85° East 503 579 35,000  Level Denver Center
05:49PM 44.2303 -102.6189 85° East 500 575 35,000  Level Denver Center
05:50PM 44.2442 -102.4269 84° East 499 574 35,000  Level Denver Center
05:51PM 44.2539 -102.2339 86° East 499 574 35,000  Level Denver Center
05:52PM 44.2644 -102.0439 85° East 496 571 35,000  Level Denver Center
05:53PM 44.2764 -101.8533 85° East 495 570 35,000  Level Denver Center
05:54PM 44.2842 -101.6614 87° East 496 571 35,000  Level Denver Center
05:55PM 44.2958 -101.4336 86° East 493 567 35,000  Level Denver Center
05:56PM 44.3042 -101.3211 84° East 493 567 35,000  Level Minneapolis Center
05:57PM 44.3136 -101.1319 86° East 492 566 35,000  Level Minneapolis Center
05:57PM 44.3164 -101.0528 87° East 494 568 35,000  Level Denver Center
05:58PM 44.3261 -100.9031 85° East 494 568 35,000  Level Minneapolis Center
05:59PM 44.3353 -100.7125 86° East 494 568 35,000  Level Minneapolis Center
06:00PM 44.3447 -100.5233 86° East 492 566 35,000  Level Minneapolis Center
06:01PM 44.3539 -100.3314 86° East 496 571 35,000  Level Minneapolis Center
06:02PM 44.3617 -100.1403 87° East 497 572 35,000  Level Minneapolis Center
06:03PM 44.3697 -99.9478 87° East 499 574 35,000  Level Minneapolis Center
06:04PM 44.3803 -99.7178 86° East 498 573 35,000  Level Minneapolis Center
06:05PM 44.3869 -99.5269 87° East 497 572 35,000  Level Minneapolis Center
06:06PM 44.3953 -99.3342 86° East 499 574 35,000  Level Minneapolis Center
06:07PM 44.4017 -99.1419 87° East 497 572 35,000  Level Minneapolis Center
06:08PM 44.4083 -98.9506 87° East 496 571 35,000  Level Minneapolis Center
06:09PM 44.4147 -98.7600 87° East 493 567 35,000  Level Minneapolis Center
06:10PM 44.4203 -98.5283 88° East 497 572 35,000  Level Minneapolis Center
06:11PM 44.4256 -98.3372 88° East 495 570 35,000  Level Minneapolis Center
06:12PM 44.4297 -98.1669 88° East 495 570 35,000  Level Minneapolis Center
06:13PM 44.4358 -97.9358 88° East 497 572 35,000  Level Minneapolis Center
06:14PM 44.4394 -97.7422 88° East 498 573 35,000  Level Minneapolis Center
06:15PM 44.4442 -97.5114 88° East 498 573 35,000 -60 Level Minneapolis Center
06:16PM 44.4481 -97.3186 88° East 497 572 34,900 -540 Descending Minneapolis Center
06:18PM 44.4511 -97.1222 89° East 504 580 33,900 -1,080 Descending Minneapolis Center
06:19PM 44.4553 -96.8800 89° East 517 595 32,700 -1,020 Descending Minneapolis Center
06:20PM 44.4589 -96.6753 89° East 522 601 31,800 -1,020 Descending Minneapolis Center
06:21PM 44.4606 -96.4722 89° East 521 600 30,700 -1,020 Descending Minneapolis Center
06:22PM 44.4622 -96.2828 89° East 486 559 29,800 -960 Descending Minneapolis Center
06:23PM 44.4656 -96.1006 88° East 466 536 28,800 -960 Descending Minneapolis Center
06:24PM 44.4664 -95.9192 90° East 463 533 27,900 -960 Descending Minneapolis Center
06:25PM 44.4667 -95.7436 90° East 455 524 26,900 -1,020 Descending Minneapolis Center
06:26PM 44.4675 -95.5694 90° East 449 517 25,900 -960 Descending Minneapolis Center
06:27PM 44.4678 -95.3933 90° East 449 517 25,000 -1,020 Descending Minneapolis Center
06:28PM 44.4669 -95.1728 90° East 468 539 23,800 -1,200 Descending Minneapolis Center
06:29PM 44.5053 -94.9692 75° East 451 519 22,400 -1,680 Descending Minneapolis Center
06:30PM 44.5436 -94.8089 71° East 440 506 20,000 -2,280 Descending Minneapolis Center
06:31PM 44.5800 -94.6497 72° East 432 497 17,700 -2,100 Descending Minneapolis Center
06:32PM 44.6161 -94.4989 71° East 420 483 15,300 -2,460 Descending Minneapolis Center
06:33PM 44.6644 -94.2844 72° East 418 481 12,100 -2,100 Descending Minneapolis Center
06:34PM 44.6989 -94.1364 72° East 400 460 11,000 -660 Descending Minneapolis Center
06:35PM 44.7314 -93.9853 73° East 404 465 10,800 -480 Descending Minneapolis Center
06:36PM 44.7561 -93.8756 72° East 371 427 10,100 -900 Descending Minneapolis Center
06:38PM 44.7875 -93.7369 72° East 311 358 9,000 -540 Descending Minneapolis Center
06:39PM 44.8133 -93.6183 73° East 316 364 9,000  Level Minneapolis Center
06:40PM 44.8389 -93.5008 73° East 313 360 9,000 -480 Level Minneapolis Center
06:41PM 44.8647 -93.3789 73° East 270 311 8,100 -840 Descending Minneapolis Center
06:42PM 44.8139 -93.3214 141° Southeast 253 291 7,300 -1,200 Descending Minneapolis Center
06:43PM 44.7486 -93.3158 177° South 242 278 5,700 -1,440 Descending Minneapolis Center
06:44PM 44.6944 -93.2828 157° South 250 288 4,300 -1,020 Descending Minneapolis Center
06:45PM 44.7294 -93.2128 55° Northeast 202 232 3,600 -720 Descending Minneapolis Center